createdAt,value
2022-10-26T00:03:46.200Z,21.00
2022-10-26T00:13:50.881Z,19.08
2022-10-26T00:23:53.894Z,21.88
2022-10-26T00:33:58.872Z,22.50
2022-10-26T00:44:02.584Z,19.55
2022-10-26T00:54:11.625Z,23.80
2022-10-26T01:04:15.689Z,18.50
2022-10-26T01:14:21.694Z,17.85
2022-10-26T01:24:51.697Z,16.73
2022-10-26T01:35:02.595Z,16.73
2022-10-26T01:45:10.390Z,12.00
2022-10-26T01:55:49.133Z,11.63
2022-10-26T02:06:01.827Z,12.40
2022-10-26T02:16:16.419Z,14.32
2022-10-26T02:26:23.794Z,9.07
2022-10-26T02:36:31.888Z,11.45
2022-10-26T02:46:35.114Z,11.52
2022-10-26T02:56:46.647Z,12.80
2022-10-26T03:06:59.158Z,11.38
2022-10-26T03:17:03.504Z,9.82
2022-10-26T03:27:06.515Z,9.23
2022-10-26T03:37:10.887Z,9.60
2022-10-26T03:47:14.012Z,7.78
2022-10-26T03:57:18.395Z,8.38
2022-10-26T04:07:21.390Z,10.25
2022-10-26T04:17:25.996Z,8.90
2022-10-26T04:27:28.977Z,9.00
2022-10-26T04:37:34.192Z,7.68
2022-10-26T04:47:37.398Z,8.80
2022-10-26T04:57:46.222Z,9.47
2022-10-26T05:07:55.236Z,9.15
2022-10-26T05:18:01.275Z,9.68
2022-10-26T05:28:06.187Z,10.68
2022-10-26T05:38:11.144Z,9.07
2022-10-26T05:48:14.454Z,10.43
2022-10-26T05:58:19.425Z,8.40
2022-10-26T06:08:24.661Z,10.23
2022-10-26T06:18:40.713Z,10.35
2022-10-26T06:28:53.165Z,9.13
2022-10-26T06:39:03.318Z,7.45
2022-10-26T06:49:13.363Z,10.80
2022-10-26T06:59:25.028Z,6.38
2022-10-26T07:09:27.984Z,14.30
2022-10-26T07:19:32.600Z,8.23
2022-10-26T07:29:36.260Z,11.07
2022-10-26T07:39:40.604Z,9.43
2022-10-26T07:49:43.618Z,9.82
2022-10-26T07:59:47.983Z,8.57
2022-10-26T08:09:50.991Z,10.48
2022-10-26T08:19:55.392Z,9.30
2022-10-26T08:29:58.362Z,11.00
2022-10-26T08:40:03.419Z,9.23
2022-10-26T08:50:11.479Z,8.65
2022-10-26T09:00:19.935Z,7.75
2022-10-26T09:10:36.619Z,7.13
2022-10-26T09:21:09.488Z,7.85
2022-10-26T09:31:17.143Z,6.25
2022-10-26T09:41:31.627Z,6.68
2022-10-26T09:51:36.941Z,6.60
2022-10-26T10:01:42.347Z,5.57
2022-10-26T10:11:54.747Z,5.35
2022-10-26T10:22:01.256Z,4.10
2022-10-26T10:32:05.169Z,9.00
2022-10-26T10:42:18.529Z,5.43
2022-10-26T10:52:30.261Z,7.00
2022-10-26T11:03:03.259Z,7.65
2022-10-26T11:13:14.248Z,5.05
2022-10-26T11:23:23.615Z,8.10
2022-10-26T11:33:32.040Z,6.95
2022-10-26T11:43:40.489Z,5.50
2022-10-26T11:53:45.164Z,10.23
2022-10-26T12:03:53.335Z,6.18
2022-10-26T12:14:00.365Z,8.68
2022-10-26T12:24:35.244Z,9.40
2022-10-26T12:35:02.065Z,7.90
2022-10-26T12:45:20.073Z,6.93
2022-10-26T12:55:51.824Z,8.52
2022-10-26T13:06:23.713Z,8.43
2022-10-26T13:16:28.740Z,9.82
2022-10-26T13:26:34.016Z,6.93
2022-10-26T13:36:43.646Z,7.45
2022-10-26T13:46:55.515Z,8.80
2022-10-26T13:57:12.025Z,10.98
2022-10-26T14:07:23.688Z,7.68
2022-10-26T14:17:27.455Z,11.07
2022-10-26T14:27:39.570Z,10.18
2022-10-26T14:37:46.979Z,8.85
2022-10-26T14:47:51.667Z,8.15
2022-10-26T14:58:08.081Z,6.70
2022-10-26T15:08:52.651Z,7.90
2022-10-26T15:19:01.880Z,10.88
2022-10-26T15:29:06.229Z,9.32
2022-10-26T15:39:10.127Z,8.10
2022-10-26T15:49:19.219Z,11.02
2022-10-26T15:59:22.185Z,7.07
2022-10-26T16:09:26.501Z,9.70
2022-10-26T16:19:31.239Z,10.32
2022-10-26T16:29:35.887Z,10.85
2022-10-26T16:39:38.876Z,8.93
2022-10-26T16:49:44.544Z,13.18
2022-10-26T16:59:47.523Z,9.15
2022-10-26T17:09:51.850Z,14.10
2022-10-26T17:19:54.841Z,12.07
2022-10-26T17:29:59.184Z,12.77
2022-10-26T17:40:02.169Z,12.45
2022-10-26T17:50:07.606Z,10.05
2022-10-26T18:00:11.734Z,11.13
2022-10-26T18:20:39.415Z,10.82
2022-10-26T18:30:43.755Z,10.45
2022-10-26T18:40:53.526Z,10.40
2022-10-26T18:50:57.927Z,9.65
2022-10-26T19:01:09.306Z,10.88
2022-10-26T19:11:15.442Z,12.10
2022-10-26T19:21:20.460Z,11.00
2022-10-26T19:31:27.231Z,11.13
2022-10-26T19:41:31.284Z,10.63
2022-10-26T19:51:35.677Z,9.23
2022-10-26T20:01:38.910Z,11.13
2022-10-26T20:11:43.908Z,15.15
2022-10-26T20:21:47.454Z,10.48
2022-10-26T20:31:55.951Z,11.35
2022-10-26T20:41:59.960Z,8.98
2022-10-26T20:52:20.674Z,10.50
2022-10-26T21:02:24.402Z,10.30
2022-10-26T21:12:28.745Z,9.15
2022-10-26T21:22:31.723Z,12.30
2022-10-26T21:32:36.068Z,10.30
2022-10-26T21:42:39.050Z,10.65
2022-10-26T21:52:43.402Z,8.13
2022-10-26T22:02:46.379Z,9.88
2022-10-26T22:12:50.921Z,7.70
2022-10-26T22:22:53.937Z,8.60
2022-10-26T22:32:58.293Z,10.55
2022-10-26T22:43:01.264Z,5.55
2022-10-26T22:53:05.578Z,7.97
2022-10-26T23:03:08.616Z,9.55
2022-10-26T23:13:13.004Z,13.32
2022-10-26T23:23:15.975Z,10.73
2022-10-26T23:33:20.379Z,6.88
2022-10-26T23:43:23.979Z,7.97
2022-10-26T23:53:29.239Z,9.83
